Мир виртуальной авиации

Полеты на авиасимуляторах
...

Аэропорт OIII

  METAR И TAF ИНФОРМАЦИЯ
METAR FOR OIII
ADDS - METARS form results

(1113 UTC 07 July 2022)
Data provider http://aviationweather.gov/metar/data/
 
METAR text: OIII 071100Z 13012KT CAVOK 34/01 Q1012 A2989 NOSIG
Conditions at: OIII (TEHRAN/MEHRABAD , IR) observed 1100 UTC 07 July 2022
Temperature: 34.0°C (93°F)
Dewpoint: 1.0°C (34°F) [RH = 12%]
Pressure (altimeter): 29.88 inches Hg (1012.0 mb)
Winds: from the SE (130 degrees) at 14 MPH (12 knots; 6.2 m/s)
Visibility: 6 or more miles (10+ km)
Ceiling: ceiling and visibility are OK
Clouds: unknown
Weather: no significant weather observed at this time

METAR text: OIII 071030Z 15010KT CAVOK 33/02 Q1012 A2991
Conditions at: OIII (TEHRAN/MEHRABAD , IR) observed 1030 UTC 07 July 2022
Temperature: 33.0°C (91°F)
Dewpoint: 2.0°C (36°F) [RH = 14%]
Pressure (altimeter): 29.88 inches Hg (1012.0 mb)
Winds: from the SSE (150 degrees) at 12 MPH (10 knots; 5.1 m/s)
Visibility: 6 or more miles (10+ km)
Ceiling: ceiling and visibility are OK
Clouds: unknown
Weather: no significant weather observed at this time

METAR text: OIII 071023Z 15010KT CAVOK 33/02 Q1012 A2991
Conditions at: OIII (TEHRAN/MEHRABAD , IR) observed 1023 UTC 07 July 2022
Temperature: 33.0°C (91°F)
Dewpoint: 2.0°C (36°F) [RH = 14%]
Pressure (altimeter): 29.88 inches Hg (1012.0 mb)
Winds: from the SSE (150 degrees) at 12 MPH (10 knots; 5.1 m/s)
Visibility: 6 or more miles (10+ km)
Ceiling: ceiling and visibility are OK
Clouds: unknown
Weather: no significant weather observed at this time

Forecast for: OIII (TEHRAN/MEHRABAD , IR)
Text: TAF OIII 070530Z 0706/0812 15008KT 8000 SCT100
Forecast period: 0600 UTC 07 July 2022 to 1200 UTC 08 July 2022
Forecast type: FROM: standard forecast or significant change
Winds: from the SSE (150 degrees) at 9 MPH (8 knots; 4.1 m/s)
Visibility: 5 miles (8 km)
Ceiling: at least 12,000 feet AGL
Clouds: scattered clouds at 10000 feet AGL
Weather: no significant weather forecast for this period
Text: TEMPO 0709/0718 15016KT
Forecast period: 0900 to 1800 UTC 07 July 2022
Forecast type: TEMPORARY: The following changes expected for less than half the time period
Winds: from the SSE (150 degrees) at 18 MPH (16 knots; 8.2 m/s)
Visibility: missing
Ceiling: unknown
Clouds: missing
Weather: no significant weather forecast for this period
Text: TEMPO 0718/0724 15016G26KT
Forecast period: 1800 UTC 07 July 2022 to 0000 UTC 08 July 2022
Forecast type: TEMPORARY: The following changes expected for less than half the time period
Winds: from the SSE (150 degrees) at 18 MPH (16 knots; 8.2 m/s)
gusting to 30 MPH (26 knots; 13.4 m/s)
Visibility: missing
Ceiling: unknown
Clouds: missing
Weather: no significant weather forecast for this period
Text: TEMPO 0800/0806 3000 HZ
Forecast period: 0000 to 0600 UTC 08 July 2022
Forecast type: TEMPORARY: The following changes expected for less than half the time period
Visibility: 1.86 miles (2.99 km)
Ceiling: unknown
Clouds: missing
Weather: HZ  (haze)
Text: TEMPO 0809/0812 15016KT
Forecast period: 0900 to 1200 UTC 08 July 2022
Forecast type: TEMPORARY: The following changes expected for less than half the time period
Winds: from the SSE (150 degrees) at 18 MPH (16 knots; 8.2 m/s)
Visibility: missing
Ceiling: unknown
Clouds: missing
Weather: no significant weather forecast for this period

  КАРТА АЭРОПОРТ
  ИНФОРМАЦИЯ О ВПП
ВПП 09 Длина ВПП 1554 ft Ширина ВПП 130 ft
Высота ВПП 0 ft Порог смещения ВПП 0 ft Курс ВПП 89
ВПП 27 Длина ВПП 1554 ft Ширина ВПП 130 ft
Высота ВПП 0 ft Порог смещения ВПП 0 ft Курс ВПП 269
ВПП 11L Длина ВПП 13098 ft Ширина ВПП 148 ft
Высота ВПП 3962 ft Порог смещения ВПП 0 ft Курс ВПП 109
ВПП 29R Длина ВПП 13098 ft Ширина ВПП 148 ft
Высота ВПП 3797 ft Порог смещения ВПП 0 ft Курс ВПП 289
ВПП 11R Длина ВПП 13248 ft Ширина ВПП 197 ft
Высота ВПП 3949 ft Порог смещения ВПП 3075 ft Курс ВПП 109
ВПП 29L Длина ВПП 13248 ft Ширина ВПП 197 ft
Высота ВПП 3794 ft Порог смещения ВПП 0 ft Курс ВПП 289
  ЧАСТОТА АЭРОПОРТА
Тип APP Название APP Частота 119.7 MHZ
Тип ATIS Название ATIS Частота 128 MHZ
Тип GND Название GND Частота 121.7 MHZ
Тип TWR Название TWR Частота 118.1 MHZ
  НАВИГАЦИОННЫЕ СРЕДСТВА AIDS
Тип TACAN Название Tehran Частота 113300 KHZ
Тип VOR-DME Название Tehran Частота 115300 KHZ